CYYW

Armstrong Airport

Armstrong, Ontario, Canada
METAR CYYW 170206Z AUTO VRB02KT 9SM -SN OVC026 M26/M28 A3014 RMK SLP282
Observed Flight Rules
Dec-17 @ 02:06 UTC (12 minutes ago) Marginal Visual Flight Rules
Wind Visibility Clouds Conditions
Variable at 2 knots 9 miles
  • Overcast at 2,600' AGL
  • Light Snow
Temperatures Readings
Current -26°C / -15°F
Dewpoint -28°C / -18°F
Humidity 83%
Altimeter 30.14" Hg
Pressure 1028.2 hPa
Elevation 351
METAR CYYW 170206Z AUTO VRB02KT 9SM -SN OVC026 M26/M28 A3014 RMK SLP282
Observed Flight Rules
Dec-17 @ 02:06 UTC
(12 minutes ago)
MVFR
Wind Visibility
Variable at 2 knots 9 miles
Clouds
  • Overcast at 2,600' AGL
Conditions
  • Light Snow
Temperature Dewpoint
-26°C / -15°F -28°C / -18°F
Humidity Altimeter Pressure
83% 30.14" Hg 1028.2 hPa